createdAt,value
2022-10-21T00:00:14.897Z,36.22
2022-10-21T00:03:01.372Z,36.29
2022-10-21T00:05:47.580Z,35.82
2022-10-21T00:08:33.838Z,36.17
2022-10-21T00:11:19.564Z,36.42
2022-10-21T00:14:05.353Z,36.42
2022-10-21T00:16:51.532Z,36.33
2022-10-21T00:19:39.993Z,36.29
2022-10-21T00:22:25.930Z,36.09
2022-10-21T00:25:11.849Z,35.98
2022-10-21T00:27:57.933Z,36.31
2022-10-21T00:30:46.994Z,36.70
2022-10-21T00:33:33.160Z,36.19
2022-10-21T00:36:19.289Z,36.21
2022-10-21T00:39:05.119Z,36.82
2022-10-21T00:41:51.261Z,36.55
2022-10-21T00:44:37.625Z,36.15
2022-10-21T00:47:23.612Z,36.50
2022-10-21T00:50:33.272Z,36.55
2022-10-21T00:53:20.021Z,36.45
2022-10-21T00:56:21.276Z,37.20
2022-10-21T00:59:07.415Z,36.93
2022-10-21T01:01:54.110Z,36.72
2022-10-21T01:04:39.972Z,37.09
2022-10-21T01:07:25.963Z,36.80
2022-10-21T01:10:11.846Z,36.79
2022-10-21T01:13:02.409Z,36.53
2022-10-21T01:16:06.299Z,37.18
2022-10-21T01:19:01.771Z,36.84
2022-10-21T01:21:54.259Z,36.53
2022-10-21T01:25:13.842Z,37.01
2022-10-21T01:28:19.491Z,37.41
2022-10-21T01:31:25.889Z,37.12
2022-10-21T01:34:25.159Z,36.90
2022-10-21T01:37:25.241Z,37.08
2022-10-21T01:40:33.381Z,37.16
2022-10-21T01:43:35.050Z,37.43
2022-10-21T01:46:28.054Z,36.72
2022-10-21T01:49:29.581Z,36.84
2022-10-21T01:52:16.523Z,37.19
2022-10-21T01:55:05.637Z,37.42
2022-10-21T01:57:59.210Z,37.17
2022-10-21T02:00:45.393Z,37.84
2022-10-21T02:03:34.878Z,37.21
2022-10-21T02:06:20.890Z,37.02
2022-10-21T02:09:07.357Z,37.29
2022-10-21T02:11:58.038Z,37.05
2022-10-21T02:14:47.881Z,37.43
2022-10-21T02:17:35.203Z,37.32
2022-10-21T02:20:21.939Z,37.34
2022-10-21T02:23:08.449Z,37.26
2022-10-21T02:25:54.467Z,37.15
2022-10-21T02:31:48.123Z,37.23
2022-10-21T02:35:00.776Z,37.35
2022-10-21T02:38:02.264Z,37.37
2022-10-21T02:40:57.066Z,37.24
2022-10-21T02:43:57.189Z,37.80
2022-10-21T02:46:44.121Z,37.51
2022-10-21T02:49:29.910Z,37.54
2022-10-21T02:52:15.567Z,37.49
2022-10-21T02:55:01.204Z,37.68
2022-10-21T02:57:47.060Z,37.46
2022-10-21T03:00:33.220Z,37.24
2022-10-21T03:03:19.226Z,37.54
2022-10-21T03:06:04.994Z,37.76
2022-10-21T03:08:50.923Z,37.72
2022-10-21T03:11:36.817Z,37.65
2022-10-21T03:14:22.817Z,37.80
2022-10-21T03:17:08.534Z,37.88
2022-10-21T03:19:54.365Z,37.75
2022-10-21T03:22:40.117Z,37.74
2022-10-21T03:25:25.762Z,37.89
2022-10-21T03:28:11.798Z,37.65
2022-10-21T03:30:57.793Z,37.59
2022-10-21T03:33:43.697Z,37.96
2022-10-21T03:36:29.617Z,37.45
2022-10-21T03:39:15.498Z,37.62
2022-10-21T03:42:01.157Z,38.06
2022-10-21T03:44:46.808Z,37.95
2022-10-21T03:47:32.585Z,38.17
2022-10-21T03:50:23.671Z,37.95
2022-10-21T03:53:24.320Z,38.20
2022-10-21T03:56:17.512Z,38.11
2022-10-21T03:59:03.725Z,38.14
2022-10-21T04:01:50.162Z,38.17
2022-10-21T04:04:35.942Z,37.83
2022-10-21T04:07:21.943Z,38.17
2022-10-21T04:10:08.667Z,37.73
2022-10-21T04:12:54.616Z,37.93
2022-10-21T04:15:40.589Z,38.16
2022-10-21T04:18:26.337Z,38.15
2022-10-21T04:21:12.720Z,37.95
2022-10-21T04:23:59.067Z,37.91
2022-10-21T04:26:45.663Z,38.18
2022-10-21T04:29:31.692Z,38.18
2022-10-21T04:32:17.917Z,38.10
2022-10-21T04:35:04.169Z,38.37
2022-10-21T04:37:50.200Z,38.35
2022-10-21T04:40:35.917Z,38.39
2022-10-21T04:43:21.691Z,38.17
2022-10-21T04:46:14.152Z,37.85
2022-10-21T04:49:00.327Z,38.25
2022-10-21T04:51:45.929Z,38.27
2022-10-21T04:54:31.721Z,38.48
2022-10-21T04:57:17.277Z,38.34
2022-10-21T05:00:04.574Z,38.19
2022-10-21T05:02:50.601Z,38.32
2022-10-21T05:05:36.317Z,38.46
2022-10-21T05:08:22.464Z,38.61
2022-10-21T05:11:08.320Z,38.57
2022-10-21T05:13:53.961Z,38.34
2022-10-21T05:16:39.749Z,38.43
2022-10-21T05:19:28.962Z,38.12
2022-10-21T05:22:17.566Z,38.31
2022-10-21T05:25:03.369Z,38.38
2022-10-21T05:27:49.381Z,38.34
2022-10-21T05:30:35.095Z,38.61
2022-10-21T05:33:21.922Z,38.44
2022-10-21T05:36:08.675Z,38.54
2022-10-21T05:38:54.761Z,38.50
2022-10-21T05:41:42.952Z,38.43
2022-10-21T05:44:31.590Z,38.38
2022-10-21T05:47:17.672Z,38.55
2022-10-21T05:50:03.546Z,38.46
2022-10-21T05:52:49.550Z,38.55
2022-10-21T05:55:35.339Z,38.39
2022-10-21T05:58:21.444Z,38.58
2022-10-21T06:01:07.281Z,38.54
2022-10-21T06:03:53.068Z,38.47
2022-10-21T06:06:39.143Z,38.54
2022-10-21T06:09:24.866Z,38.34
2022-10-21T06:12:10.687Z,38.59
2022-10-21T06:14:56.465Z,38.48
2022-10-21T06:17:42.217Z,38.43
2022-10-21T06:20:28.000Z,38.47
2022-10-21T06:23:15.418Z,38.01
2022-10-21T06:26:04.084Z,38.37
2022-10-21T06:28:49.963Z,38.68
2022-10-21T06:31:36.593Z,38.80
2022-10-21T06:34:22.548Z,38.60
2022-10-21T06:37:08.193Z,38.56
2022-10-21T06:39:53.951Z,38.43
2022-10-21T06:42:39.765Z,38.45
2022-10-21T06:45:25.949Z,38.70
2022-10-21T06:48:13.692Z,38.46
2022-10-21T06:51:01.141Z,38.60
2022-10-21T06:53:47.338Z,38.61
2022-10-21T06:56:33.147Z,38.40
2022-10-21T06:59:19.099Z,38.53
2022-10-21T07:02:04.950Z,38.79
2022-10-21T07:04:52.616Z,39.13
2022-10-21T07:07:38.596Z,39.01
2022-10-21T07:10:24.636Z,38.74
2022-10-21T07:13:10.435Z,38.51
2022-10-21T07:16:00.555Z,38.91
2022-10-21T07:18:46.330Z,38.71
2022-10-21T07:21:32.890Z,39.09
2022-10-21T07:24:22.313Z,38.85
2022-10-21T07:27:08.625Z,39.19
2022-10-21T07:29:54.278Z,39.03
2022-10-21T07:32:39.854Z,39.31
2022-10-21T07:35:25.786Z,38.67
2022-10-21T07:38:12.431Z,38.86
2022-10-21T07:40:59.012Z,39.13
2022-10-21T07:43:45.614Z,39.11
2022-10-21T07:46:31.699Z,39.22
2022-10-21T07:49:18.546Z,39.34
2022-10-21T07:52:04.720Z,39.51
2022-10-21T07:54:50.889Z,39.44
2022-10-21T07:57:36.750Z,38.96
2022-10-21T08:00:22.429Z,39.50
2022-10-21T08:03:08.234Z,39.12
2022-10-21T08:05:54.671Z,38.89
2022-10-21T08:08:41.322Z,39.62
2022-10-21T08:11:29.988Z,38.97
2022-10-21T08:14:15.809Z,38.81
2022-10-21T08:17:01.864Z,39.16
2022-10-21T08:19:48.255Z,39.23
2022-10-21T08:22:33.967Z,39.45
2022-10-21T08:25:19.718Z,39.78
2022-10-21T08:28:06.256Z,39.33
2022-10-21T08:30:52.489Z,38.91
2022-10-21T08:33:38.866Z,38.79
2022-10-21T08:36:25.781Z,38.73
2022-10-21T08:39:11.981Z,39.20
2022-10-21T08:42:12.437Z,39.26
2022-10-21T08:45:07.037Z,38.72
2022-10-21T08:47:55.866Z,38.82
2022-10-21T08:50:46.618Z,38.74
2022-10-21T08:53:45.201Z,38.43
2022-10-21T08:56:32.248Z,38.73
2022-10-21T08:59:23.932Z,38.71
2022-10-21T09:02:24.662Z,38.65
2022-10-21T09:05:19.346Z,38.81
2022-10-21T09:08:20.595Z,38.70
2022-10-21T09:11:09.615Z,38.43
2022-10-21T09:14:14.028Z,38.61
2022-10-21T09:17:24.202Z,38.45
2022-10-21T09:20:37.900Z,38.54
2022-10-21T09:23:48.431Z,38.23
2022-10-21T09:26:41.859Z,38.35
2022-10-21T09:29:34.581Z,38.21
2022-10-21T09:35:38.162Z,38.58
2022-10-21T09:38:56.643Z,38.67
2022-10-21T09:41:48.574Z,38.15
2022-10-21T09:44:37.399Z,38.15
2022-10-21T09:47:24.760Z,38.44
2022-10-21T09:50:17.163Z,38.06
2022-10-21T09:53:13.231Z,37.93
2022-10-21T09:56:03.772Z,38.18
2022-10-21T09:58:54.847Z,38.29
2022-10-21T10:01:43.966Z,37.91
2022-10-21T10:04:32.471Z,38.27
2022-10-21T10:07:33.237Z,38.04
2022-10-21T10:10:33.609Z,37.95
2022-10-21T10:13:20.716Z,38.03
2022-10-21T10:16:36.590Z,38.00
2022-10-21T10:19:27.594Z,37.77
2022-10-21T10:22:15.751Z,37.63
2022-10-21T10:25:09.138Z,37.81
2022-10-21T10:27:59.672Z,37.54
2022-10-21T10:30:45.326Z,37.65
2022-10-21T10:33:35.392Z,37.60
2022-10-21T10:36:34.231Z,37.52
2022-10-21T10:39:30.423Z,37.35
2022-10-21T10:42:24.417Z,37.14
2022-10-21T10:45:15.571Z,37.08
2022-10-21T10:48:06.914Z,36.90
2022-10-21T10:50:53.754Z,36.70
2022-10-21T10:53:39.741Z,36.53
2022-10-21T10:56:39.722Z,36.46
2022-10-21T11:00:01.682Z,36.36
2022-10-21T11:03:16.345Z,36.28
2022-10-21T11:06:19.741Z,35.92
2022-10-21T11:09:07.037Z,35.74
2022-10-21T11:11:56.485Z,35.09
2022-10-21T11:14:43.199Z,33.93
2022-10-21T11:17:38.089Z,32.93
2022-10-21T11:20:53.792Z,31.54
2022-10-21T11:24:07.139Z,30.29
2022-10-21T11:27:19.159Z,28.93
2022-10-21T11:34:57.552Z,27.21
2022-10-21T11:38:06.638Z,26.59
2022-10-21T11:40:59.081Z,26.55
2022-10-21T11:44:16.717Z,26.08
2022-10-21T11:47:28.897Z,25.84
2022-10-21T11:53:43.026Z,25.57
2022-10-21T11:57:02.672Z,25.54
2022-10-21T12:00:18.247Z,25.41
2022-10-21T12:03:45.974Z,25.50
2022-10-21T12:06:54.283Z,25.62
2022-10-21T12:10:01.802Z,25.48
2022-10-21T12:13:22.519Z,25.35
2022-10-21T12:16:13.627Z,25.72
2022-10-21T12:19:03.319Z,25.83
2022-10-21T12:21:49.458Z,25.76
2022-10-21T12:24:52.760Z,25.59
2022-10-21T12:28:04.531Z,25.41
2022-10-21T12:35:53.385Z,25.64
2022-10-21T12:38:58.748Z,25.47
2022-10-21T12:41:46.834Z,25.13
2022-10-21T12:44:33.040Z,25.03
2022-10-21T12:47:31.748Z,24.87
2022-10-21T12:50:32.963Z,24.58
2022-10-21T12:53:34.155Z,23.80
2022-10-21T12:56:43.155Z,23.71
2022-10-21T12:59:35.506Z,23.39
2022-10-21T13:02:29.790Z,22.71
2022-10-21T13:05:38.677Z,22.10
2022-10-21T13:08:29.655Z,21.95
2022-10-21T13:11:40.938Z,21.88
2022-10-21T13:15:01.309Z,21.18
2022-10-21T13:17:54.218Z,21.04
2022-10-21T13:20:43.431Z,20.77
2022-10-21T13:23:36.848Z,20.34
2022-10-21T13:26:27.355Z,20.90
2022-10-21T13:29:16.250Z,20.79
2022-10-21T13:32:14.577Z,20.54
2022-10-21T13:35:31.421Z,20.45
2022-10-21T13:38:52.468Z,20.32
2022-10-21T13:41:38.769Z,20.19
2022-10-21T13:45:09.476Z,20.33
2022-10-21T13:48:33.455Z,20.48
2022-10-21T13:51:26.138Z,20.73
2022-10-21T13:54:14.342Z,21.02
2022-10-21T13:57:07.028Z,21.20
2022-10-21T14:00:08.772Z,21.50
2022-10-21T14:03:02.340Z,21.73
2022-10-21T14:05:58.748Z,22.34
2022-10-21T14:08:47.304Z,22.70
2022-10-21T14:11:37.571Z,22.86
2022-10-21T14:14:27.032Z,23.15
2022-10-21T14:17:18.473Z,23.45
2022-10-21T14:20:13.313Z,23.49
2022-10-21T14:23:00.619Z,24.21
2022-10-21T14:25:50.457Z,24.45
2022-10-21T14:28:37.121Z,24.65
2022-10-21T14:31:22.789Z,24.71
2022-10-21T14:34:22.026Z,25.04
2022-10-21T14:37:12.207Z,25.25
2022-10-21T14:40:12.517Z,25.45
2022-10-21T14:43:09.947Z,25.71
2022-10-21T14:45:56.043Z,25.98
2022-10-21T14:48:59.907Z,26.10
2022-10-21T14:51:45.978Z,26.15
2022-10-21T14:54:42.034Z,26.25
2022-10-21T14:57:40.814Z,26.61
2022-10-21T15:00:30.163Z,26.76
2022-10-21T15:03:16.277Z,26.92
2022-10-21T15:06:27.037Z,26.98
2022-10-21T15:09:13.155Z,27.08
2022-10-21T15:12:22.380Z,27.57
2022-10-21T15:15:49.711Z,27.55
2022-10-21T15:18:44.291Z,27.71
2022-10-21T15:22:02.584Z,27.64
2022-10-21T15:24:50.676Z,27.71
2022-10-21T15:27:42.645Z,28.06
2022-10-21T15:30:35.063Z,28.06
2022-10-21T15:33:20.801Z,28.27
2022-10-21T15:36:11.976Z,28.35
2022-10-21T15:38:57.653Z,28.53
2022-10-21T15:41:43.338Z,28.71
2022-10-21T15:44:31.104Z,28.56
2022-10-21T15:47:17.278Z,28.84
2022-10-21T15:50:12.866Z,28.97
2022-10-21T15:52:58.615Z,29.04
2022-10-21T15:55:44.648Z,29.26
2022-10-21T15:58:32.014Z,29.34
2022-10-21T16:01:18.170Z,29.67
2022-10-21T16:04:04.339Z,29.55
2022-10-21T16:06:51.410Z,29.62
2022-10-21T16:09:37.235Z,29.70
2022-10-21T16:12:23.129Z,29.89
2022-10-21T16:15:09.900Z,29.84
2022-10-21T16:17:57.832Z,30.04
2022-10-21T16:20:44.115Z,30.09
2022-10-21T16:23:31.718Z,30.14
2022-10-21T16:26:24.205Z,30.39
2022-10-21T16:29:21.126Z,30.26
2022-10-21T16:32:09.132Z,30.42
2022-10-21T16:34:54.901Z,30.54
2022-10-21T16:37:41.438Z,30.53
2022-10-21T16:40:31.709Z,30.75
2022-10-21T16:43:17.805Z,30.96
2022-10-21T16:46:03.497Z,31.09
2022-10-21T16:48:49.271Z,30.81
2022-10-21T16:51:36.588Z,31.08
2022-10-21T16:54:23.389Z,30.91
2022-10-21T16:57:09.191Z,30.99
2022-10-21T16:59:54.878Z,31.06
2022-10-21T17:02:40.679Z,31.52
2022-10-21T17:05:26.869Z,31.38
2022-10-21T17:08:12.712Z,31.47
2022-10-21T17:10:58.410Z,31.50
2022-10-21T17:13:45.049Z,31.85
2022-10-21T17:16:31.439Z,31.88
2022-10-21T17:19:17.495Z,31.83
2022-10-21T17:22:03.562Z,31.56
2022-10-21T17:24:49.840Z,31.75
2022-10-21T17:27:36.211Z,32.01
2022-10-21T17:30:22.522Z,32.14
2022-10-21T17:33:13.384Z,32.13
2022-10-21T17:36:00.273Z,32.07
2022-10-21T17:38:46.877Z,31.96
2022-10-21T17:41:32.962Z,32.29
2022-10-21T17:44:19.137Z,32.28
2022-10-21T17:47:05.240Z,32.20
2022-10-21T17:49:50.983Z,32.18
2022-10-21T17:52:37.996Z,32.28
2022-10-21T17:55:24.052Z,32.36
2022-10-21T17:58:09.947Z,32.33
2022-10-21T18:00:56.980Z,32.31
2022-10-21T18:03:43.275Z,32.66
2022-10-21T18:06:29.353Z,32.57
2022-10-21T18:09:15.633Z,32.58
2022-10-21T18:12:04.242Z,32.80
2022-10-21T18:14:51.648Z,32.78
2022-10-21T18:17:40.014Z,33.04
2022-10-21T18:20:26.098Z,32.86
2022-10-21T18:23:13.032Z,32.87
2022-10-21T18:26:12.376Z,33.30
2022-10-21T18:29:00.466Z,33.35
2022-10-21T18:31:46.668Z,33.05
2022-10-21T18:34:33.946Z,33.30
2022-10-21T18:37:19.972Z,33.24
2022-10-21T18:40:06.623Z,33.41
2022-10-21T18:42:52.274Z,33.35
2022-10-21T18:45:38.124Z,33.46
2022-10-21T18:48:24.220Z,33.42
2022-10-21T18:51:11.970Z,33.51
2022-10-21T18:53:58.027Z,33.58
2022-10-21T18:56:45.043Z,33.59
2022-10-21T18:59:30.781Z,33.49
2022-10-21T19:02:22.043Z,33.78
2022-10-21T19:05:08.220Z,33.59
2022-10-21T19:07:54.033Z,33.73
2022-10-21T19:10:42.205Z,33.99
2022-10-21T19:13:28.400Z,33.92
2022-10-21T19:16:14.114Z,33.74
2022-10-21T19:18:59.982Z,33.85
2022-10-21T19:21:45.666Z,34.00
2022-10-21T19:24:32.261Z,33.85
2022-10-21T19:27:18.732Z,34.24
2022-10-21T19:30:05.079Z,34.28
2022-10-21T19:32:50.887Z,34.21
2022-10-21T19:35:36.806Z,33.99
2022-10-21T19:38:39.701Z,34.27
2022-10-21T19:41:29.604Z,34.38
2022-10-21T19:44:16.189Z,34.33
2022-10-21T19:47:02.116Z,34.27
2022-10-21T19:49:48.576Z,34.48
2022-10-21T19:52:34.369Z,34.34
2022-10-21T19:55:20.221Z,34.63
2022-10-21T19:58:06.469Z,34.61
2022-10-21T20:01:01.552Z,34.58
2022-10-21T20:03:48.743Z,34.65
2022-10-21T20:06:37.130Z,34.63
2022-10-21T20:09:23.441Z,34.82
2022-10-21T20:12:10.335Z,34.66
2022-10-21T20:14:56.458Z,34.64
2022-10-21T20:17:42.207Z,35.01
2022-10-21T20:20:28.319Z,35.00
2022-10-21T20:23:14.693Z,34.91
2022-10-21T20:26:00.798Z,34.93
2022-10-21T20:28:46.890Z,35.20
2022-10-21T20:31:32.709Z,35.26
2022-10-21T20:34:18.747Z,35.17
2022-10-21T20:37:04.438Z,35.17
2022-10-21T20:39:50.255Z,35.41
2022-10-21T20:42:36.124Z,35.15
2022-10-21T20:45:22.088Z,35.27
2022-10-21T20:48:08.188Z,35.40
2022-10-21T20:51:05.575Z,35.53
2022-10-21T20:53:53.852Z,35.41
2022-10-21T20:56:41.010Z,35.65
2022-10-21T20:59:26.776Z,35.58
2022-10-21T21:02:12.602Z,35.75
2022-10-21T21:04:58.631Z,35.75
2022-10-21T21:07:44.267Z,35.67
2022-10-21T21:10:30.849Z,35.73
2022-10-21T21:13:16.870Z,35.87
2022-10-21T21:16:07.605Z,35.91
2022-10-21T21:19:05.748Z,36.19
2022-10-21T21:21:52.523Z,35.83
2022-10-21T21:24:38.520Z,35.91
2022-10-21T21:27:24.656Z,35.99
2022-10-21T21:30:10.853Z,36.01
2022-10-21T21:32:56.532Z,35.97
2022-10-21T21:35:42.398Z,35.98
2022-10-21T21:38:28.826Z,36.11
2022-10-21T21:41:16.702Z,36.18
2022-10-21T21:44:04.482Z,36.13
2022-10-21T21:46:50.281Z,36.45
2022-10-21T21:49:36.151Z,36.46
2022-10-21T21:52:22.736Z,36.39
2022-10-21T21:55:08.785Z,36.36
2022-10-21T21:57:54.707Z,36.62
2022-10-21T22:00:40.347Z,36.52
2022-10-21T22:03:25.962Z,36.52
2022-10-21T22:06:11.809Z,36.77
2022-10-21T22:08:58.016Z,36.71
2022-10-21T22:11:43.814Z,36.79
2022-10-21T22:14:29.649Z,36.46
2022-10-21T22:17:15.285Z,36.65
2022-10-21T22:20:01.177Z,36.76
2022-10-21T22:22:47.242Z,36.84
2022-10-21T22:25:33.530Z,36.81
2022-10-21T22:28:19.569Z,36.86
2022-10-21T22:31:10.944Z,36.96
2022-10-21T22:33:57.044Z,36.99
2022-10-21T22:36:43.132Z,37.00
2022-10-21T22:39:29.091Z,36.93
2022-10-21T22:42:14.770Z,37.00
2022-10-21T22:45:00.406Z,37.01
2022-10-21T22:47:46.018Z,36.95
2022-10-21T22:50:32.146Z,37.34
2022-10-21T22:53:17.930Z,37.31
2022-10-21T22:56:04.212Z,37.32
2022-10-21T22:58:50.000Z,37.09
2022-10-21T23:01:35.830Z,37.19
2022-10-21T23:04:21.320Z,37.22
2022-10-21T23:07:07.159Z,37.74
2022-10-21T23:09:52.934Z,37.80
2022-10-21T23:12:39.075Z,37.40
2022-10-21T23:15:24.935Z,37.15
2022-10-21T23:18:11.163Z,37.41
2022-10-21T23:20:57.097Z,37.81
2022-10-21T23:23:43.158Z,37.83
2022-10-21T23:26:29.364Z,37.76
2022-10-21T23:29:16.177Z,37.78
2022-10-21T23:32:02.293Z,37.83
2022-10-21T23:34:48.114Z,37.95
2022-10-21T23:37:33.738Z,37.69
2022-10-21T23:40:19.545Z,37.89
2022-10-21T23:43:05.318Z,38.03
2022-10-21T23:45:51.140Z,37.71
2022-10-21T23:48:38.204Z,37.80
2022-10-21T23:51:24.290Z,37.78
2022-10-21T23:54:09.929Z,38.18
2022-10-21T23:56:55.525Z,37.89
2022-10-21T23:59:41.299Z,38.45
